createdAt,value
2023-03-07T00:00:06.456Z,2
2023-03-07T00:01:05.852Z,2
2023-03-07T00:02:05.959Z,2
2023-03-07T00:03:07.193Z,1.9
2023-03-07T00:04:06.984Z,2
2023-03-07T00:05:06.609Z,1.9
2023-03-07T00:06:06.181Z,1.9
2023-03-07T00:07:06.416Z,2
2023-03-07T00:08:06.251Z,1.9
2023-03-07T00:09:06.355Z,2
2023-03-07T00:10:06.119Z,1.9
2023-03-07T00:11:06.544Z,1.9
2023-03-07T00:12:06.528Z,1.9
2023-03-07T00:13:06.618Z,1.9
2023-03-07T00:14:06.289Z,1.9
2023-03-07T00:15:06.048Z,2
2023-03-07T00:16:06.759Z,1.9
2023-03-07T00:17:06.308Z,1.9
2023-03-07T00:18:06.127Z,1.9
2023-03-07T00:19:05.954Z,1.9
2023-03-07T00:20:06.602Z,2
2023-03-07T00:21:06.847Z,1.9
2023-03-07T00:22:06.408Z,1.9
2023-03-07T00:23:06.479Z,2
2023-03-07T00:24:06.501Z,1.9
2023-03-07T00:25:06.381Z,1.9
2023-03-07T00:26:06.269Z,1.9
2023-03-07T00:27:06.624Z,1.9
2023-03-07T00:28:06.405Z,1.9
2023-03-07T00:29:06.117Z,1.9
2023-03-07T00:30:06.443Z,1.9
2023-03-07T00:31:06.685Z,1.9
2023-03-07T00:32:06.554Z,1.8
2023-03-07T00:33:06.260Z,2
2023-03-07T00:34:06.251Z,1.9
2023-03-07T00:35:05.854Z,1.9
2023-03-07T00:36:06.510Z,1.9
2023-03-07T00:37:06.231Z,1.8
2023-03-07T00:38:06.354Z,1.9
2023-03-07T00:39:05.922Z,1.8
2023-03-07T00:40:05.917Z,1.8
2023-03-07T00:41:06.143Z,1.8
2023-03-07T00:42:06.020Z,1.8
2023-03-07T00:43:06.093Z,1.8
2023-03-07T00:44:06.112Z,1.8
2023-03-07T00:45:05.951Z,1.8
2023-03-07T00:46:06.564Z,1.8
2023-03-07T00:47:06.302Z,1.8
2023-03-07T00:48:06.113Z,1.8
2023-03-07T00:49:05.926Z,1.8
2023-03-07T00:50:05.934Z,1
2023-03-07T00:51:06.230Z,1.8
2023-03-07T00:52:06.047Z,1.8
2023-03-07T00:53:05.765Z,1.7
2023-03-07T00:54:05.765Z,1.7
2023-03-07T00:55:06.896Z,1
2023-03-07T00:56:06.268Z,1.7
2023-03-07T00:57:06.070Z,1.7
2023-03-07T00:58:06.009Z,1.7
2023-03-07T00:59:05.777Z,1.7
2023-03-07T01:00:06.694Z,1.7
2023-03-07T01:01:06.261Z,1.7
2023-03-07T01:02:06.050Z,1.7
2023-03-07T01:03:06.810Z,1.7
2023-03-07T01:04:05.864Z,1.7
2023-03-07T01:05:06.807Z,1.7
2023-03-07T01:06:06.045Z,1.7
2023-03-07T01:07:06.502Z,1.7
2023-03-07T01:08:06.419Z,1.7
2023-03-07T01:09:06.382Z,1.7
2023-03-07T01:10:06.078Z,1.7
2023-03-07T01:11:06.228Z,1.7
2023-03-07T01:12:06.206Z,1.7
2023-03-07T01:13:06.078Z,1.7
2023-03-07T01:14:06.097Z,1.7
2023-03-07T01:15:06.176Z,1.7
2023-03-07T01:16:06.513Z,2
2023-03-07T01:17:06.437Z,1.7
2023-03-07T01:18:06.275Z,1.7
2023-03-07T01:19:06.282Z,1.7
2023-03-07T01:20:05.880Z,1.7
2023-03-07T01:21:06.446Z,2
2023-03-07T01:22:06.126Z,1.7
2023-03-07T01:23:06.007Z,2
2023-03-07T01:24:05.782Z,1.8
2023-03-07T01:25:06.031Z,1.7
2023-03-07T01:26:06.202Z,1.7
2023-03-07T01:27:05.709Z,1.8
2023-03-07T01:28:06.002Z,1.8
2023-03-07T01:29:05.969Z,1.7
2023-03-07T01:30:05.870Z,1.8
2023-03-07T01:31:06.211Z,1.8
2023-03-07T01:32:06.605Z,1.8
2023-03-07T01:33:05.995Z,1.8
2023-03-07T01:34:06.938Z,1.7
2023-03-07T01:35:06.722Z,1.7
2023-03-07T01:36:07.173Z,1.7
2023-03-07T01:37:06.597Z,1.7
2023-03-07T01:38:06.426Z,1.8
2023-03-07T01:39:06.917Z,1.8
2023-03-07T01:40:06.458Z,1.8
2023-03-07T01:41:06.220Z,1.8
2023-03-07T01:42:06.049Z,1.8
2023-03-07T01:43:05.842Z,1.7
2023-03-07T01:44:05.951Z,1.7
2023-03-07T01:45:06.556Z,1.7
2023-03-07T01:46:06.296Z,1.8
2023-03-07T01:47:06.274Z,1.8
2023-03-07T01:48:05.799Z,1.8
2023-03-07T01:49:06.575Z,1.8
2023-03-07T01:50:06.756Z,1.7
2023-03-07T01:51:06.473Z,1.8
2023-03-07T01:52:06.357Z,1.7
2023-03-07T01:53:06.355Z,1.7
2023-03-07T01:54:06.247Z,1.8
2023-03-07T01:55:06.376Z,1.8
2023-03-07T01:56:06.503Z,1.8
2023-03-07T01:57:06.337Z,1.8
2023-03-07T01:58:06.035Z,2
2023-03-07T01:59:06.005Z,1.8
2023-03-07T02:00:06.118Z,1.7
2023-03-07T02:01:06.048Z,1.7
2023-03-07T02:02:06.008Z,1.7
2023-03-07T02:03:05.954Z,2
2023-03-07T02:04:05.864Z,1.8
2023-03-07T02:05:06.340Z,1.8
2023-03-07T02:06:06.142Z,2
2023-03-07T02:07:05.770Z,2
2023-03-07T02:08:05.890Z,1.8
2023-03-07T02:09:06.727Z,1.7
2023-03-07T02:10:06.740Z,1.7
2023-03-07T02:11:06.651Z,1.8
2023-03-07T02:12:06.717Z,1.7
2023-03-07T02:13:06.410Z,1.7
2023-03-07T02:14:06.564Z,1.7
2023-03-07T02:15:06.379Z,1.7
2023-03-07T02:16:06.646Z,1.7
2023-03-07T02:17:06.535Z,1.7
2023-03-07T02:18:06.178Z,1.7
2023-03-07T02:19:06.002Z,1.7
2023-03-07T02:20:05.932Z,1.7
2023-03-07T02:21:06.102Z,1.7
2023-03-07T02:22:06.143Z,1.7
2023-03-07T02:23:05.681Z,1.7
2023-03-07T02:24:05.965Z,1.7
2023-03-07T02:25:06.039Z,1.7
2023-03-07T02:26:06.142Z,1.7
2023-03-07T02:27:05.956Z,1.7
2023-03-07T02:28:06.120Z,1.7
2023-03-07T02:29:05.895Z,1.7
2023-03-07T02:30:05.945Z,2
2023-03-07T02:31:06.144Z,1.7
2023-03-07T02:32:06.509Z,2
2023-03-07T02:33:06.194Z,1.7
2023-03-07T02:34:06.083Z,1.7
2023-03-07T02:35:06.042Z,1.7
2023-03-07T02:36:06.245Z,1.7
2023-03-07T02:37:06.301Z,1.7
2023-03-07T02:38:06.290Z,1.7
2023-03-07T02:39:05.895Z,1.7
2023-03-07T02:40:05.816Z,1.7
2023-03-07T02:41:06.359Z,1.6
2023-03-07T02:42:06.431Z,1.7
2023-03-07T02:43:06.133Z,1.7
2023-03-07T02:44:06.157Z,1.7
2023-03-07T02:45:06.276Z,1.7
2023-03-07T02:46:06.575Z,1.7
2023-03-07T02:47:06.096Z,1.7
2023-03-07T02:48:06.026Z,1.7
2023-03-07T02:49:05.857Z,1.7
2023-03-07T02:50:05.840Z,1.7
2023-03-07T02:51:06.172Z,1.7
2023-03-07T02:52:06.185Z,2
2023-03-07T02:53:05.906Z,1.7
2023-03-07T02:54:05.931Z,2
2023-03-07T02:55:05.786Z,1.7
2023-03-07T02:56:06.146Z,1.7
2023-03-07T02:57:05.884Z,1.7
2023-03-07T02:58:06.745Z,2
2023-03-07T02:59:06.637Z,1.7
2023-03-07T03:00:06.550Z,1.7
2023-03-07T03:01:06.597Z,1.7
2023-03-07T03:02:06.255Z,1.7
2023-03-07T03:03:06.120Z,1.7
2023-03-07T03:04:06.049Z,1.7
2023-03-07T03:05:06.250Z,1.7
2023-03-07T03:06:06.019Z,1.6
2023-03-07T03:07:05.807Z,1.6
2023-03-07T03:08:05.881Z,1.6
2023-03-07T03:09:05.701Z,1.6
2023-03-07T03:10:06.864Z,1.6
2023-03-07T03:11:06.320Z,1.6
2023-03-07T03:12:06.370Z,1.7
2023-03-07T03:13:06.279Z,1.6
2023-03-07T03:14:06.178Z,1.6
2023-03-07T03:15:05.991Z,1.6
2023-03-07T03:16:06.316Z,1.6
2023-03-07T03:17:06.202Z,1
2023-03-07T03:18:06.297Z,1.6
2023-03-07T03:19:06.007Z,1
2023-03-07T03:20:05.944Z,1.6
2023-03-07T03:21:06.212Z,1.6
2023-03-07T03:22:06.324Z,1.6
2023-03-07T03:23:06.023Z,1.6
2023-03-07T03:24:06.034Z,1.6
2023-03-07T03:25:05.705Z,1.6
2023-03-07T03:26:06.286Z,1.6
2023-03-07T03:27:06.160Z,1.6
2023-03-07T03:28:06.057Z,1.6
2023-03-07T03:29:05.924Z,1.6
2023-03-07T03:30:05.785Z,1.6
2023-03-07T03:31:06.112Z,1.6
2023-03-07T03:32:05.867Z,1.6
2023-03-07T03:33:06.724Z,1.6
2023-03-07T03:34:06.434Z,1.6
2023-03-07T03:35:06.563Z,1.6
2023-03-07T03:36:06.846Z,1.6
2023-03-07T03:37:06.443Z,1.6
2023-03-07T03:38:06.573Z,1.6
2023-03-07T03:39:06.147Z,1.6
2023-03-07T03:40:06.161Z,2
2023-03-07T03:41:06.707Z,2
2023-03-07T03:42:06.715Z,1.6
2023-03-07T03:43:06.624Z,1.6
2023-03-07T03:44:06.582Z,1.6
2023-03-07T03:45:06.217Z,1.6
2023-03-07T03:46:06.416Z,1.6
2023-03-07T03:47:06.413Z,1.6
2023-03-07T03:48:06.121Z,1.6
2023-03-07T03:49:06.237Z,1.6
2023-03-07T03:50:06.030Z,1.6
2023-03-07T03:51:06.668Z,2
2023-03-07T03:52:06.303Z,1.6
2023-03-07T03:53:06.268Z,2
2023-03-07T03:54:06.159Z,1.6
2023-03-07T03:55:05.702Z,1.6
2023-03-07T03:56:06.177Z,1.6
2023-03-07T03:57:06.103Z,1.6
2023-03-07T03:58:05.769Z,1.6
2023-03-07T03:59:05.940Z,1.6
2023-03-07T04:00:06.685Z,1.6
2023-03-07T04:01:06.035Z,1.6
2023-03-07T04:02:06.598Z,1.6
2023-03-07T04:03:06.237Z,1.6
2023-03-07T04:04:05.920Z,1
2023-03-07T04:05:05.801Z,1.5
2023-03-07T04:06:06.089Z,1.5
2023-03-07T04:07:05.894Z,1.5
2023-03-07T04:08:06.837Z,1.5
2023-03-07T04:09:06.722Z,1.5
2023-03-07T04:10:06.818Z,1.4
2023-03-07T04:11:06.146Z,1.4
2023-03-07T04:12:05.951Z,1.4
2023-03-07T04:13:05.943Z,1.4
2023-03-07T04:14:05.714Z,1.4
2023-03-07T04:15:06.503Z,1.4
2023-03-07T04:16:05.752Z,1.4
2023-03-07T04:17:06.658Z,1.3
2023-03-07T04:18:06.584Z,1.4
2023-03-07T04:19:06.354Z,1.3
2023-03-07T04:20:06.263Z,1.3
2023-03-07T04:21:06.551Z,1.3
2023-03-07T04:22:06.553Z,1.3
2023-03-07T04:23:06.511Z,1.3
2023-03-07T04:24:06.292Z,1.2
2023-03-07T04:25:06.307Z,1.2
2023-03-07T04:26:06.959Z,1.2
2023-03-07T04:27:06.603Z,1.2
2023-03-07T04:28:06.440Z,1
2023-03-07T04:29:06.344Z,1.2
2023-03-07T04:30:06.288Z,1.2
2023-03-07T04:31:06.471Z,1.2
2023-03-07T04:32:06.962Z,1.2
2023-03-07T04:33:06.125Z,1.2
2023-03-07T04:34:06.093Z,1.2
2023-03-07T04:35:05.960Z,1.2
2023-03-07T04:36:06.184Z,1.1
2023-03-07T04:37:06.108Z,1.1
2023-03-07T04:38:05.943Z,1.1
2023-03-07T04:39:05.964Z,1
2023-03-07T04:40:05.669Z,1.1
2023-03-07T04:41:06.141Z,1.1
2023-03-07T04:42:06.142Z,1
2023-03-07T04:43:06.029Z,1
2023-03-07T04:44:05.908Z,1
2023-03-07T04:45:09.069Z,1
2023-03-07T04:46:06.411Z,0.9
2023-03-07T04:47:06.183Z,1
2023-03-07T04:48:06.234Z,0.9
2023-03-07T04:49:06.028Z,0.9
2023-03-07T04:50:06.069Z,0.9
2023-03-07T04:51:06.486Z,1
2023-03-07T04:52:06.391Z,0.9
2023-03-07T04:53:06.149Z,0.9
2023-03-07T04:54:06.051Z,0.8
2023-03-07T04:55:05.853Z,0.8
2023-03-07T04:56:06.142Z,0.8
2023-03-07T04:57:06.049Z,0.8
2023-03-07T04:58:05.960Z,0.8
2023-03-07T04:59:05.848Z,1
2023-03-07T05:00:05.747Z,0.8
2023-03-07T05:01:06.595Z,0.8
2023-03-07T05:02:06.089Z,0.8
2023-03-07T05:03:05.829Z,0.7
2023-03-07T05:04:06.960Z,0
2023-03-07T05:05:06.733Z,0.7
2023-03-07T05:06:06.850Z,0.7
2023-03-07T05:07:06.640Z,0.7
2023-03-07T05:08:06.412Z,0.6
2023-03-07T05:09:06.102Z,0.7
2023-03-07T05:10:06.083Z,0.6
2023-03-07T05:11:06.396Z,0.6
2023-03-07T05:12:06.379Z,0.6
2023-03-07T05:13:06.061Z,0.6
2023-03-07T05:14:06.005Z,0
2023-03-07T05:15:05.938Z,0.6
2023-03-07T05:16:06.359Z,0.6
2023-03-07T05:17:06.238Z,0.5
2023-03-07T05:18:06.191Z,0.5
2023-03-07T05:19:08.327Z,0.5
2023-03-07T05:20:06.669Z,0.5
2023-03-07T05:21:06.196Z,0.5
2023-03-07T05:22:06.100Z,0.5
2023-03-07T05:23:05.781Z,0.5
2023-03-07T05:24:05.971Z,0.5
2023-03-07T05:25:05.825Z,0.5
2023-03-07T05:26:06.021Z,0
2023-03-07T05:27:06.028Z,0.5
2023-03-07T05:28:05.920Z,0.5
2023-03-07T05:29:05.743Z,0.5
2023-03-07T05:30:05.789Z,0.4
2023-03-07T05:31:06.335Z,0.4
2023-03-07T05:32:06.218Z,0.4
2023-03-07T05:33:05.747Z,0.4
2023-03-07T05:34:05.597Z,0.4
2023-03-07T05:35:06.712Z,0.4
2023-03-07T05:36:06.381Z,0.4
2023-03-07T05:37:05.991Z,0.4
2023-03-07T05:38:06.194Z,0.3
2023-03-07T05:39:06.070Z,0.3
2023-03-07T05:40:05.864Z,0.2
2023-03-07T05:41:06.543Z,0.2
2023-03-07T05:42:06.229Z,0.2
2023-03-07T05:43:06.140Z,0.1
2023-03-07T05:44:06.168Z,0.1
2023-03-07T05:45:06.058Z,0
2023-03-07T05:46:06.205Z,0
2023-03-07T05:47:06.236Z,0
2023-03-07T05:48:06.035Z,0
2023-03-07T05:49:05.898Z,0
2023-03-07T05:50:05.580Z,0
2023-03-07T05:51:05.960Z,-1
2023-03-07T05:52:05.945Z,0
2023-03-07T05:53:05.765Z,0
2023-03-07T05:54:06.467Z,0
2023-03-07T05:55:06.659Z,0
2023-03-07T05:56:05.909Z,0
2023-03-07T05:57:05.911Z,0
2023-03-07T05:58:05.956Z,0
2023-03-07T05:59:05.818Z,0
2023-03-07T06:00:06.839Z,0
2023-03-07T06:01:05.732Z,0
2023-03-07T06:02:05.911Z,0
2023-03-07T06:03:05.901Z,0
2023-03-07T06:04:06.943Z,0.1
2023-03-07T06:05:06.584Z,0.1
2023-03-07T06:06:06.365Z,0.2
2023-03-07T06:07:05.730Z,0.2
2023-03-07T06:08:05.849Z,0.3
2023-03-07T06:09:06.703Z,0.4
2023-03-07T06:10:06.674Z,0.4
2023-03-07T06:11:05.628Z,0.4
2023-03-07T06:12:05.503Z,0.5
2023-03-07T06:13:06.579Z,0.5
2023-03-07T06:14:06.481Z,0.6
2023-03-07T06:15:06.400Z,0.6
2023-03-07T06:16:06.739Z,0.6
2023-03-07T06:17:06.694Z,0.7
2023-03-07T06:18:06.322Z,0.8
2023-03-07T06:19:06.132Z,0.8
2023-03-07T06:20:06.298Z,0.8
2023-03-07T06:21:06.263Z,0.8
2023-03-07T06:22:06.169Z,0.8
2023-03-07T06:23:06.010Z,0.9
2023-03-07T06:24:05.783Z,0.9
2023-03-07T06:25:06.721Z,2
2023-03-07T06:26:06.079Z,2
2023-03-07T06:27:06.216Z,2
2023-03-07T06:28:05.818Z,1
2023-03-07T06:29:05.673Z,1.1
2023-03-07T06:30:06.762Z,1.2
2023-03-07T06:31:06.386Z,1.2
2023-03-07T06:32:06.123Z,1.2
2023-03-07T06:33:05.743Z,1.2
2023-03-07T06:34:05.930Z,1.3
2023-03-07T06:35:05.992Z,1.3
2023-03-07T06:36:06.480Z,1.2
2023-03-07T06:37:06.232Z,1.3
2023-03-07T06:38:05.892Z,1.4
2023-03-07T06:39:06.672Z,1.4
2023-03-07T06:40:06.653Z,1.4
2023-03-07T06:41:06.182Z,1.4
2023-03-07T06:42:06.103Z,1.4
2023-03-07T06:43:05.896Z,1.4
2023-03-07T06:44:05.845Z,1.5
2023-03-07T06:45:06.775Z,1.5
2023-03-07T06:46:06.264Z,1.6
2023-03-07T06:47:05.877Z,1.6
2023-03-07T06:48:06.018Z,1.6
2023-03-07T06:49:05.780Z,1.6
2023-03-07T06:50:06.363Z,2
2023-03-07T06:51:05.991Z,1.7
2023-03-07T06:52:06.095Z,1.7
2023-03-07T06:53:06.272Z,1.7
2023-03-07T06:54:05.622Z,1.7
2023-03-07T06:55:06.687Z,1.8
2023-03-07T06:56:06.037Z,1.7
2023-03-07T06:57:05.769Z,1.8
2023-03-07T06:58:06.610Z,1.8
2023-03-07T06:59:06.358Z,1.8
2023-03-07T07:00:06.751Z,2
2023-03-07T07:01:06.651Z,1.8
2023-03-07T07:02:06.941Z,1.8
2023-03-07T07:03:06.721Z,1.9
2023-03-07T07:04:06.190Z,2
2023-03-07T07:05:06.047Z,2
2023-03-07T07:06:06.359Z,2
2023-03-07T07:07:06.003Z,2
2023-03-07T07:08:06.186Z,2
2023-03-07T07:09:06.241Z,2
2023-03-07T07:10:05.803Z,2.1
2023-03-07T07:11:06.265Z,2.1
2023-03-07T07:12:06.126Z,2.1
2023-03-07T07:13:05.927Z,2
2023-03-07T07:14:05.899Z,2.2
2023-03-07T07:15:06.064Z,2.2
2023-03-07T07:16:06.515Z,2.2
2023-03-07T07:17:06.427Z,2.2
2023-03-07T07:18:05.915Z,2.3
2023-03-07T07:19:06.194Z,2.3
2023-03-07T07:20:05.979Z,2.3
2023-03-07T07:21:06.163Z,2.3
2023-03-07T07:22:05.920Z,2.4
2023-03-07T07:23:05.717Z,2.4
2023-03-07T07:24:05.886Z,2.4
2023-03-07T07:25:06.564Z,2.4
2023-03-07T07:26:06.776Z,2.5
2023-03-07T07:27:06.341Z,2.5
2023-03-07T07:28:06.549Z,2.6
2023-03-07T07:29:06.516Z,2.6
2023-03-07T07:30:06.253Z,2.6
2023-03-07T07:31:06.616Z,2.7
2023-03-07T07:32:07.058Z,2
2023-03-07T07:33:06.779Z,2.7
2023-03-07T07:34:06.014Z,2.8
2023-03-07T07:35:05.994Z,2.8
2023-03-07T07:36:06.470Z,2.8
2023-03-07T07:37:06.393Z,2.8
2023-03-07T07:38:06.283Z,2.8
2023-03-07T07:39:06.021Z,2.8
2023-03-07T07:40:05.964Z,2.8
2023-03-07T07:41:06.756Z,2.9
2023-03-07T07:42:06.511Z,2.9
2023-03-07T07:43:06.518Z,2.9
2023-03-07T07:44:06.544Z,3
2023-03-07T07:45:06.206Z,3
2023-03-07T07:46:05.912Z,3
2023-03-07T07:47:05.868Z,3
2023-03-07T07:48:06.519Z,3
2023-03-07T07:49:06.617Z,3
2023-03-07T07:50:06.576Z,3.1
2023-03-07T07:51:06.404Z,3
2023-03-07T07:52:06.156Z,3.1
2023-03-07T07:53:06.205Z,3.2
2023-03-07T07:54:05.983Z,3.2
2023-03-07T07:55:06.167Z,3.2
2023-03-07T07:56:06.326Z,3.3
2023-03-07T07:57:06.508Z,3.2
2023-03-07T07:58:06.270Z,3.3
2023-03-07T07:59:06.183Z,3
2023-03-07T08:00:06.254Z,3.4
2023-03-07T08:01:06.272Z,3.4
2023-03-07T08:02:06.456Z,3.4
2023-03-07T08:03:06.132Z,3.4
2023-03-07T08:04:05.833Z,3.4
2023-03-07T08:05:06.523Z,3.4
2023-03-07T08:06:05.985Z,3.4
2023-03-07T08:07:06.651Z,3.5
2023-03-07T08:08:06.564Z,3.5
2023-03-07T08:09:06.566Z,3.4
2023-03-07T08:10:06.215Z,3.5
2023-03-07T08:11:05.963Z,3.5
2023-03-07T08:12:06.143Z,3.5
2023-03-07T08:13:05.952Z,3.5
2023-03-07T08:14:06.739Z,3.5
2023-03-07T08:15:05.496Z,3.5
2023-03-07T08:16:06.194Z,3.5
2023-03-07T08:17:05.919Z,3.6
2023-03-07T08:18:06.713Z,3.5
2023-03-07T08:19:06.413Z,3.6
2023-03-07T08:20:06.277Z,3.6
2023-03-07T08:21:06.262Z,3.6
2023-03-07T08:22:06.140Z,3.6
2023-03-07T08:23:05.755Z,3.6
2023-03-07T08:24:05.825Z,3.6
2023-03-07T08:25:05.803Z,3.7
2023-03-07T08:26:08.171Z,3.7
2023-03-07T08:27:05.915Z,3.7
2023-03-07T08:28:05.999Z,3.7
2023-03-07T08:29:06.890Z,3.8
2023-03-07T08:30:06.897Z,3.8
2023-03-07T08:31:05.848Z,3.9
2023-03-07T08:32:05.956Z,3.9
2023-03-07T08:33:06.719Z,3.9
2023-03-07T08:34:06.427Z,3.9
2023-03-07T08:35:06.781Z,4
2023-03-07T08:36:05.946Z,4
2023-03-07T08:37:05.647Z,4
2023-03-07T08:38:06.542Z,4.1
2023-03-07T08:39:06.628Z,4.1
2023-03-07T08:40:06.563Z,4.1
2023-03-07T08:41:06.024Z,4.2
2023-03-07T08:42:06.290Z,4.2
2023-03-07T08:43:05.963Z,4.2
2023-03-07T08:44:06.026Z,4.3
2023-03-07T08:45:05.860Z,4.3
2023-03-07T08:46:06.504Z,4.3
2023-03-07T08:47:06.350Z,4.4
2023-03-07T08:48:06.143Z,4.4
2023-03-07T08:49:05.955Z,4.5
2023-03-07T08:50:06.037Z,4.6
2023-03-07T08:51:06.240Z,4.6
2023-03-07T08:52:06.234Z,4.7
2023-03-07T08:53:05.988Z,4.8
2023-03-07T08:54:05.918Z,4.8
2023-03-07T08:55:05.686Z,4.9
2023-03-07T08:56:06.301Z,4.9
2023-03-07T08:57:06.128Z,5
2023-03-07T08:58:06.049Z,5
2023-03-07T08:59:05.867Z,5
2023-03-07T09:00:05.958Z,5.1
2023-03-07T09:01:06.243Z,5.2
2023-03-07T09:02:06.400Z,5.2
2023-03-07T09:03:05.972Z,5.2
2023-03-07T09:04:06.037Z,5.2
2023-03-07T09:05:06.040Z,5.2
2023-03-07T09:06:06.244Z,4
2023-03-07T09:07:06.102Z,5.2
2023-03-07T09:08:06.013Z,5.2
2023-03-07T09:09:06.105Z,5.3
2023-03-07T09:10:05.803Z,4
2023-03-07T09:11:06.202Z,5.4
2023-03-07T09:12:06.144Z,5.5
2023-03-07T09:13:06.129Z,5.6
2023-03-07T09:14:05.850Z,5
2023-03-07T09:15:05.963Z,5.7
2023-03-07T09:16:06.367Z,5.7
2023-03-07T09:17:05.889Z,5.8
2023-03-07T09:18:05.815Z,5
2023-03-07T09:19:05.836Z,5.9
2023-03-07T09:20:06.727Z,5.9
2023-03-07T09:21:06.060Z,6
2023-03-07T09:22:05.845Z,6
2023-03-07T09:23:06.737Z,5
2023-03-07T09:24:06.469Z,6.1
2023-03-07T09:25:06.336Z,6.1
2023-03-07T09:26:06.436Z,6.2
2023-03-07T09:27:06.352Z,6.2
2023-03-07T09:28:06.380Z,6.3
2023-03-07T09:29:06.318Z,6.3
2023-03-07T09:30:06.032Z,6.4
2023-03-07T09:31:06.801Z,6.3
2023-03-07T09:32:06.824Z,5
2023-03-07T09:33:06.319Z,6.4
2023-03-07T09:34:06.302Z,5
2023-03-07T09:35:06.264Z,6.6
2023-03-07T09:36:06.770Z,6.7
2023-03-07T09:37:06.673Z,6.7
2023-03-07T09:38:06.549Z,6
2023-03-07T09:39:06.154Z,6.8
2023-03-07T09:40:06.002Z,6
2023-03-07T09:41:06.210Z,6.9
2023-03-07T09:42:06.345Z,7.1
2023-03-07T09:43:06.301Z,7.1
2023-03-07T09:44:06.168Z,7.1
2023-03-07T09:45:06.115Z,5
2023-03-07T09:46:06.596Z,7.2
2023-03-07T09:47:06.455Z,5
2023-03-07T09:48:06.505Z,7.2
2023-03-07T09:49:05.935Z,7.4
2023-03-07T09:50:05.789Z,7.4
2023-03-07T09:51:15.650Z,7.5
2023-03-07T09:52:06.081Z,7.6
2023-03-07T09:53:05.945Z,7.8
2023-03-07T09:54:05.779Z,7.9
2023-03-07T09:55:05.937Z,7.9
2023-03-07T09:56:06.143Z,7.9
2023-03-07T09:57:05.952Z,7.8
2023-03-07T09:58:05.956Z,6
2023-03-07T09:59:24.314Z,8
2023-03-07T10:00:06.793Z,8
2023-03-07T10:01:06.555Z,8
2023-03-07T10:02:06.381Z,8
2023-03-07T10:03:06.242Z,8
2023-03-07T10:04:06.158Z,8.1
2023-03-07T10:05:05.876Z,8.1
2023-03-07T10:06:06.473Z,8.3
2023-03-07T10:07:06.438Z,8.3
2023-03-07T10:08:06.630Z,8.4
2023-03-07T10:09:06.710Z,8.4
2023-03-07T10:10:06.210Z,6
2023-03-07T10:11:05.936Z,8.4
2023-03-07T10:12:09.075Z,6
2023-03-07T10:13:06.452Z,8.5
2023-03-07T10:14:06.671Z,8.5
2023-03-07T10:15:06.267Z,8.4
2023-03-07T10:16:06.639Z,8.4
2023-03-07T10:17:06.800Z,8.4
2023-03-07T10:18:09.023Z,8.4
2023-03-07T10:19:06.424Z,8.4
2023-03-07T10:20:06.612Z,8.4
2023-03-07T10:21:06.588Z,8.4
2023-03-07T10:22:06.415Z,8.5
2023-03-07T10:23:06.426Z,8.6
2023-03-07T10:24:06.184Z,6
2023-03-07T10:25:06.180Z,8.7
2023-03-07T10:26:05.885Z,8.8
2023-03-07T10:27:05.797Z,8.8
2023-03-07T10:28:06.659Z,8.8
2023-03-07T10:29:06.589Z,8.8
2023-03-07T10:30:06.385Z,8.8
2023-03-07T10:31:05.973Z,8.9
2023-03-07T10:32:07.252Z,8.9
2023-03-07T10:33:06.062Z,8.9
2023-03-07T10:34:06.570Z,9
2023-03-07T10:35:06.628Z,9.2
2023-03-07T10:36:05.987Z,9.2
2023-03-07T10:37:13.050Z,9.4
2023-03-07T10:38:06.333Z,9.6
2023-03-07T10:39:06.478Z,9.7
2023-03-07T10:40:09.258Z,9.9
2023-03-07T10:41:06.577Z,9.9
2023-03-07T10:42:05.903Z,10
2023-03-07T10:43:09.023Z,10
2023-03-07T10:44:06.831Z,10.1
2023-03-07T10:45:06.381Z,10.2
2023-03-07T10:46:22.449Z,8
2023-03-07T10:47:06.220Z,10.1
2023-03-07T10:48:06.121Z,10.1
2023-03-07T10:49:07.569Z,10.1
2023-03-07T10:50:06.142Z,10.2
2023-03-07T10:51:06.044Z,8
2023-03-07T10:52:06.024Z,10.4
2023-03-07T10:53:05.870Z,10.6
2023-03-07T10:54:05.796Z,10.6
2023-03-07T10:55:06.726Z,10.5
2023-03-07T10:56:06.479Z,10.4
2023-03-07T10:57:06.235Z,10.3
2023-03-07T10:58:06.162Z,10.3
2023-03-07T10:59:05.908Z,10.1
2023-03-07T11:00:06.008Z,10
2023-03-07T11:01:06.260Z,10
2023-03-07T11:02:06.259Z,9.9
2023-03-07T11:03:06.286Z,9.8
2023-03-07T11:04:06.166Z,9.8
2023-03-07T11:05:06.157Z,9.8
2023-03-07T11:06:06.369Z,9.8
2023-03-07T11:07:06.320Z,9.8
2023-03-07T11:08:06.012Z,7
2023-03-07T11:09:08.362Z,9.8
2023-03-07T11:10:05.884Z,9.8
2023-03-07T11:11:06.029Z,9.8
2023-03-07T11:12:05.996Z,9.8
2023-03-07T11:13:05.692Z,9.8
2023-03-07T11:14:06.627Z,9.9
2023-03-07T11:15:06.613Z,10
2023-03-07T11:16:15.371Z,10.1
2023-03-07T11:17:05.804Z,10.1
2023-03-07T11:18:06.732Z,10.2
2023-03-07T11:19:06.669Z,10.3
2023-03-07T11:20:06.404Z,7
2023-03-07T11:21:05.733Z,10.5
2023-03-07T11:22:06.433Z,10.7
2023-03-07T11:23:06.504Z,10.7
2023-03-07T11:24:06.540Z,10.7
2023-03-07T11:25:06.499Z,8
2023-03-07T11:26:05.779Z,10.8
2023-03-07T11:27:06.724Z,10.8
2023-03-07T11:28:06.496Z,11
2023-03-07T11:29:06.330Z,11.1
2023-03-07T11:30:06.096Z,11.2
2023-03-07T11:31:06.512Z,11.2
2023-03-07T11:32:08.154Z,11.4
2023-03-07T11:33:05.973Z,11.4
2023-03-07T11:34:06.055Z,11.5
2023-03-07T11:35:05.791Z,11.5
2023-03-07T11:36:06.034Z,11.6
2023-03-07T11:37:05.771Z,11.6
2023-03-07T11:38:06.572Z,11.6
2023-03-07T11:39:06.550Z,11.6
2023-03-07T11:40:06.438Z,11.6
2023-03-07T11:41:06.409Z,11.5
2023-03-07T11:42:06.423Z,11.6
2023-03-07T11:43:06.401Z,9
2023-03-07T11:44:09.579Z,11.6
2023-03-07T11:45:06.292Z,11.7
2023-03-07T11:46:06.763Z,11.7
2023-03-07T11:47:06.243Z,11.7
2023-03-07T11:48:06.147Z,11.8
2023-03-07T11:49:06.185Z,11.8
2023-03-07T11:50:06.111Z,11.9
2023-03-07T11:51:06.249Z,12
2023-03-07T11:52:06.053Z,12
2023-03-07T11:53:05.971Z,12
2023-03-07T11:54:05.956Z,11.9
2023-03-07T11:55:05.975Z,11.7
2023-03-07T11:56:06.295Z,11.6
2023-03-07T11:57:06.100Z,11.2
2023-03-07T11:58:05.747Z,11.2
2023-03-07T11:59:05.894Z,11.2
2023-03-07T12:00:05.712Z,8
2023-03-07T12:01:05.897Z,11.3
2023-03-07T12:02:06.030Z,11.3
2023-03-07T12:03:06.013Z,11.2
2023-03-07T12:04:06.670Z,11.2
2023-03-07T12:05:06.738Z,11.1
2023-03-07T12:06:06.138Z,11.2
2023-03-07T12:07:05.885Z,11.1
2023-03-07T12:08:06.514Z,11.2
2023-03-07T12:09:06.393Z,11.1
2023-03-07T12:10:06.332Z,10.9
2023-03-07T12:11:06.014Z,10.9
2023-03-07T12:12:05.898Z,10.9
2023-03-07T12:13:05.718Z,11
2023-03-07T12:14:06.702Z,11.1
2023-03-07T12:15:06.419Z,11.2
2023-03-07T12:16:06.386Z,11.2
2023-03-07T12:17:05.594Z,11.3
2023-03-07T12:18:05.927Z,11.4
2023-03-07T12:19:05.888Z,9
2023-03-07T12:20:06.645Z,11.4
2023-03-07T12:21:05.795Z,11.4
2023-03-07T12:22:05.906Z,11.4
2023-03-07T12:23:06.656Z,11.4
2023-03-07T12:24:06.637Z,11.4
2023-03-07T12:25:06.624Z,11.4
2023-03-07T12:26:05.961Z,11.3
2023-03-07T12:27:06.820Z,11.2
2023-03-07T12:28:06.662Z,11.2
2023-03-07T12:29:06.584Z,11.2
2023-03-07T12:30:06.446Z,11.2
2023-03-07T12:31:06.779Z,11.2
2023-03-07T12:32:06.186Z,11.2
2023-03-07T12:33:07.201Z,11.2
2023-03-07T12:34:06.700Z,11.2
2023-03-07T12:35:06.554Z,11.2
2023-03-07T12:36:06.190Z,11
2023-03-07T12:37:06.676Z,11
2023-03-07T12:38:06.664Z,11
2023-03-07T12:39:06.411Z,11
2023-03-07T12:40:06.585Z,11
2023-03-07T12:41:06.624Z,11
2023-03-07T12:42:06.615Z,8
2023-03-07T12:43:06.454Z,11
2023-03-07T12:44:06.408Z,11.1
2023-03-07T12:45:06.585Z,11
2023-03-07T12:46:06.002Z,11.1
2023-03-07T12:47:05.593Z,11
2023-03-07T12:48:06.798Z,11
2023-03-07T12:49:06.511Z,10.9
2023-03-07T12:50:06.522Z,10.9
2023-03-07T12:51:06.806Z,10.9
2023-03-07T12:52:06.600Z,10.9
2023-03-07T12:53:06.344Z,10.9
2023-03-07T12:54:06.023Z,9
2023-03-07T12:55:06.094Z,10.8
2023-03-07T12:56:06.389Z,9
2023-03-07T12:57:06.391Z,10.9
2023-03-07T12:58:06.326Z,9
2023-03-07T12:59:06.213Z,11
2023-03-07T13:00:06.225Z,11
2023-03-07T13:01:06.447Z,11
2023-03-07T13:02:06.055Z,10.9
2023-03-07T13:03:05.729Z,10.8
2023-03-07T13:04:06.769Z,10.8
2023-03-07T13:05:06.727Z,10.8
2023-03-07T13:06:05.815Z,10.8
2023-03-07T13:07:05.737Z,10.8
2023-03-07T13:08:06.526Z,10.7
2023-03-07T13:09:06.303Z,10.6
2023-03-07T13:10:06.168Z,10.6
2023-03-07T13:11:06.325Z,10.6
2023-03-07T13:12:06.250Z,10.5
2023-03-07T13:13:06.108Z,10.4
2023-03-07T13:14:06.012Z,10.4
2023-03-07T13:15:05.834Z,8
2023-03-07T13:16:06.166Z,10.4
2023-03-07T13:17:06.174Z,10.3
2023-03-07T13:18:06.022Z,10.3
2023-03-07T13:19:05.935Z,10.2
2023-03-07T13:20:06.688Z,9
2023-03-07T13:21:06.198Z,10.2
2023-03-07T13:22:06.359Z,10.2
2023-03-07T13:23:06.316Z,9
2023-03-07T13:24:06.096Z,10.2
2023-03-07T13:25:05.864Z,10.2
2023-03-07T13:26:06.078Z,10.1
2023-03-07T13:27:05.777Z,10
2023-03-07T13:28:05.881Z,10.1
2023-03-07T13:29:05.828Z,9
2023-03-07T13:30:05.749Z,10.1
2023-03-07T13:31:05.963Z,10.1
2023-03-07T13:32:06.048Z,10
2023-03-07T13:33:05.843Z,10
2023-03-07T13:34:05.783Z,10
2023-03-07T13:35:06.604Z,10
2023-03-07T13:36:06.182Z,9.9
2023-03-07T13:37:05.978Z,9.8
2023-03-07T13:38:05.831Z,9.8
2023-03-07T13:39:06.716Z,9.8
2023-03-07T13:40:06.911Z,9.8
2023-03-07T13:41:06.054Z,9.7
2023-03-07T13:42:05.635Z,9.8
2023-03-07T13:43:06.578Z,9.7
2023-03-07T13:44:06.212Z,9
2023-03-07T13:45:06.049Z,9.7
2023-03-07T13:46:06.391Z,9.7
2023-03-07T13:47:06.079Z,9.7
2023-03-07T13:48:05.997Z,9.7
2023-03-07T13:49:06.003Z,9.7
2023-03-07T13:50:05.771Z,9.7
2023-03-07T13:51:05.949Z,9.7